Time;durP1;ratioP1;P1;durP2;ratioP2;P2;SDS_P1;SDS_P2;PMS_P1;PMS_P2;Temp;Humidity;BMP_temperature;BMP_pressure;BME280_temperature;BME280_humidity;BME280_pressure;Samples;Min_cycle;Max_cycle;Signal;HPM_P1;HPM_P2
2023/03/25 00:01:00;;;;;;;2.35;0.55;;;8.80;99.90;;;;;;5055855;28;20061;-85
2023/03/25 00:03:28;;;;;;;2.20;0.38;;;8.90;99.90;;;;;;5049025;28;20283;-85
2023/03/25 00:05:55;;;;;;;3.85;0.22;;;8.90;99.90;;;;;;5032557;28;20057;-84
2023/03/25 00:08:25;;;;;;;5.22;0.32;;;8.90;99.90;;;;;;5059773;28;20428;-85
2023/03/25 00:10:57;;;;;;;2.53;0.20;;;8.90;99.90;;;;;;5031579;28;20036;-86
2023/03/25 00:13:24;;;;;;;1.88;0.20;;;8.90;99.90;;;;;;5050840;28;20063;-85
2023/03/25 00:15:52;;;;;;;2.47;0.30;;;8.90;99.90;;;;;;5052079;28;20024;-86
2023/03/25 00:18:21;;;;;;;5.40;0.40;;;8.90;99.90;;;;;;5042678;28;20079;-85
2023/03/25 00:20:51;;;;;;;2.43;0.40;;;8.90;99.90;;;;;;5032302;28;20491;-85
2023/03/25 00:23:18;;;;;;;;;;;8.90;99.90;;;;;;5057807;28;20090;-86
2023/03/25 00:25:44;;;;;;;3.05;0.40;;;8.90;99.90;;;;;;5061876;28;19912;-86
2023/03/25 00:28:14;;;;;;;2.00;0.30;;;8.90;99.90;;;;;;5058569;28;20482;-85
2023/03/25 00:30:41;;;;;;;3.88;0.57;;;8.90;99.90;;;;;;5053494;28;20037;-86
2023/03/25 00:33:09;;;;;;;2.33;0.45;;;8.90;99.90;;;;;;5065609;28;20064;-85
2023/03/25 00:35:36;;;;;;;3.85;0.50;;;9.00;99.90;;;;;;5026240;28;20393;-85
2023/03/25 00:38:02;;;;;;;3.28;0.40;;;9.00;99.90;;;;;;5051881;28;20056;-89
2023/03/25 00:40:34;;;;;;;3.35;0.30;;;9.00;99.90;;;;;;5029801;28;20021;-85
2023/03/25 00:43:01;;;;;;;2.17;0.30;;;9.00;99.90;;;;;;5056220;28;20028;-88
2023/03/25 00:45:28;;;;;;;6.70;0.50;;;9.00;99.90;;;;;;5044836;28;20033;-84
2023/03/25 00:47:54;;;;;;;3.30;0.30;;;9.00;99.90;;;;;;5059925;28;20040;-87
2023/03/25 00:50:23;;;;;;;3.95;0.30;;;9.00;99.90;;;;;;5034732;28;20029;-86
2023/03/25 00:52:50;;;;;;;3.17;0.30;;;9.00;99.90;;;;;;5037881;28;20039;-87
2023/03/25 00:55:16;;;;;;;4.75;0.55;;;9.00;99.90;;;;;;5030966;28;20029;-86
2023/03/25 00:57:42;;;;;;;5.25;0.40;;;9.00;99.90;;;;;;5033436;28;20550;-85
2023/03/25 01:00:12;;;;;;;5.15;0.32;;;9.10;99.90;;;;;;5030486;28;20025;-85
2023/03/25 01:02:38;;;;;;;2.28;0.40;;;9.00;99.90;;;;;;5040067;28;20016;-85
2023/03/25 01:05:05;;;;;;;4.65;0.77;;;9.10;99.90;;;;;;5029847;28;20567;-86
2023/03/25 01:07:31;;;;;;;2.72;0.40;;;9.10;99.90;;;;;;5065519;28;20037;-85
2023/03/25 01:09:58;;;;;;;2.50;0.38;;;9.10;99.90;;;;;;5041505;28;21083;-84
2023/03/25 01:12:25;;;;;;;5.20;0.30;;;9.00;99.90;;;;;;5032831;28;20051;-85
2023/03/25 01:14:52;;;;;;;4.22;0.45;;;9.10;99.90;;;;;;5030908;28;20021;-85
2023/03/25 01:17:17;;;;;;;4.18;0.30;;;9.10;99.90;;;;;;5041207;28;20052;-85
2023/03/25 01:19:44;;;;;;;3.53;0.40;;;9.10;99.90;;;;;;5054251;28;20508;-85
2023/03/25 01:22:10;;;;;;;2.75;0.30;;;9.00;99.90;;;;;;5059149;28;20033;-85
2023/03/25 01:24:36;;;;;;;5.57;0.40;;;9.10;99.90;;;;;;5030596;28;20036;-85
2023/03/25 01:27:01;;;;;;;5.03;0.45;;;9.10;99.90;;;;;;5044138;28;20021;-85
2023/03/25 01:29:28;;;;;;;5.65;0.52;;;9.10;99.90;;;;;;5041751;28;20029;-86
2023/03/25 01:31:54;;;;;;;2.92;0.30;;;9.10;99.90;;;;;;5043575;28;20041;-84
2023/03/25 01:34:20;;;;;;;5.55;0.30;;;9.10;99.90;;;;;;5072413;28;20019;-85
2023/03/25 01:36:46;;;;;;;6.22;0.30;;;9.10;99.90;;;;;;5029286;28;20032;-85
2023/03/25 01:39:17;;;;;;;3.55;0.30;;;9.10;99.90;;;;;;5043725;28;20362;-86
2023/03/25 01:41:45;;;;;;;6.00;0.43;;;9.10;99.90;;;;;;5048587;28;20029;-85
2023/03/25 01:44:13;;;;;;;2.97;0.35;;;9.10;99.90;;;;;;5048999;28;20120;-85
2023/03/25 01:46:43;;;;;;;4.80;0.55;;;9.10;99.90;;;;;;5063086;28;20041;-85
2023/03/25 01:49:15;;;;;;;2.92;0.30;;;9.10;99.90;;;;;;5055244;28;20415;-86
2023/03/25 01:51:45;;;;;;;1.98;0.30;;;9.10;99.90;;;;;;5039600;28;20036;-85
2023/03/25 01:54:16;;;;;;;3.92;0.30;;;9.10;99.90;;;;;;5030062;28;20056;-86
2023/03/25 01:56:46;;;;;;;2.42;0.20;;;9.00;99.90;;;;;;5053801;28;20037;-84
2023/03/25 01:59:16;;;;;;;5.30;0.47;;;9.00;99.90;;;;;;5042665;28;20032;-85
2023/03/25 02:01:44;;;;;;;4.10;0.22;;;9.00;99.90;;;;;;5041180;28;20387;-85
2023/03/25 02:04:12;;;;;;;2.22;0.20;;;9.00;99.90;;;;;;5032905;28;20025;-85
2023/03/25 02:06:47;;;;;;;3.40;0.40;;;9.00;99.90;;;;;;5043234;28;20028;-85
2023/03/25 02:09:16;;;;;;;3.50;0.40;;;9.10;99.90;;;;;;5043298;28;20032;-86
2023/03/25 02:11:42;;;;;;;6.03;0.47;;;9.10;99.90;;;;;;5061734;28;20037;-86
2023/03/25 02:14:15;;;;;;;2.42;0.40;;;9.10;99.90;;;;;;5065407;28;20029;-86
2023/03/25 02:16:44;;;;;;;4.40;0.38;;;9.10;99.90;;;;;;5041289;28;20064;-87
2023/03/25 02:19:22;;;;;;;4.22;0.50;;;9.00;99.90;;;;;;5041878;28;20024;-86
2023/03/25 02:21:53;;;;;;;4.28;0.50;;;9.00;99.90;;;;;;5060669;28;20032;-87
2023/03/25 02:24:52;;;;;;;3.72;0.47;;;9.00;99.90;;;;;;5039190;28;20382;-85
2023/03/25 02:27:32;;;;;;;3.80;0.82;;;9.00;99.90;;;;;;5027787;28;20345;-84
2023/03/25 02:30:16;;;;;;;4.93;0.50;;;8.90;99.90;;;;;;5047291;28;20025;-86
2023/03/25 02:32:56;;;;;;;3.58;0.30;;;8.90;99.90;;;;;;5044048;28;20049;-84
2023/03/25 02:35:51;;;;;;;5.00;0.38;;;8.90;99.90;;;;;;5046640;28;20045;-87
2023/03/25 02:38:30;;;;;;;2.13;0.30;;;8.90;99.90;;;;;;5029671;28;20099;-85
2023/03/25 02:41:16;;;;;;;2.10;0.30;;;8.90;99.90;;;;;;5026976;28;20055;-87
2023/03/25 02:43:56;;;;;;;3.45;0.32;;;8.90;99.90;;;;;;5028934;28;20036;-86
2023/03/25 02:46:24;;;;;;;1.55;0.20;;;8.90;99.90;;;;;;5029111;28;20086;-88
2023/03/25 02:48:56;;;;;;;3.63;0.43;;;8.80;99.90;;;;;;5046459;28;20047;-85
2023/03/25 02:51:32;;;;;;;2.90;0.30;;;8.90;99.90;;;;;;5035605;28;20049;-85
2023/03/25 02:54:05;;;;;;;1.55;0.30;;;8.80;99.90;;;;;;5045819;28;20029;-87
2023/03/25 02:56:33;;;;;;;3.33;0.30;;;8.80;99.90;;;;;;5030362;28;20167;-84
2023/03/25 02:59:01;;;;;;;3.00;0.30;;;8.80;99.90;;;;;;5026389;28;20106;-88
2023/03/25 03:01:27;;;;;;;4.80;0.40;;;8.80;99.90;;;;;;5043372;28;20520;-85
2023/03/25 03:03:55;;;;;;;3.20;0.40;;;8.70;99.90;;;;;;5054661;28;20036;-85
2023/03/25 03:06:23;;;;;;;4.10;0.40;;;8.80;99.90;;;;;;5045956;28;20032;-85
2023/03/25 03:08:48;;;;;;;4.13;0.50;;;8.70;99.90;;;;;;5038278;28;20090;-86
2023/03/25 03:11:14;;;;;;;3.28;0.30;;;8.70;99.90;;;;;;5062172;28;20485;-87
2023/03/25 03:13:58;;;;;;;3.55;0.40;;;8.70;99.90;;;;;;5054824;28;20120;-87
2023/03/25 03:16:49;;;;;;;5.20;0.60;;;8.70;99.90;;;;;;5040778;28;20466;-85
2023/03/25 03:19:39;;;;;;;2.88;0.40;;;8.60;99.90;;;;;;5053560;28;20029;-86
2023/03/25 03:22:12;;;;;;;;;;;8.60;99.90;;;;;;5050738;28;20025;-85
2023/03/25 03:25:11;;;;;;;3.90;0.38;;;8.50;99.90;;;;;;5077616;28;19908;-86
2023/03/25 03:28:05;;;;;;;4.32;0.52;;;8.50;99.90;;;;;;5049684;28;20037;-84
2023/03/25 03:30:53;;;;;;;3.42;0.35;;;8.50;99.90;;;;;;5038750;28;20032;-85
2023/03/25 03:33:25;;;;;;;2.97;0.30;;;8.50;99.90;;;;;;5052797;28;20577;-85
2023/03/25 03:36:00;;;;;;;2.15;0.30;;;8.40;99.90;;;;;;5034052;28;20458;-85
2023/03/25 03:38:32;;;;;;;2.10;0.30;;;8.40;99.90;;;;;;5064196;28;20040;-84
2023/03/25 03:41:05;;;;;;;3.05;0.40;;;8.40;99.90;;;;;;5051018;28;20113;-84
2023/03/25 03:43:39;;;;;;;4.10;0.30;;;8.40;99.90;;;;;;5059222;28;20040;-85
2023/03/25 03:46:12;;;;;;;3.00;0.50;;;8.40;99.90;;;;;;5059441;28;20067;-83
2023/03/25 03:48:42;;;;;;;2.35;0.38;;;8.40;99.90;;;;;;5033456;28;20032;-84
2023/03/25 03:51:10;;;;;;;;;;;8.40;99.90;;;;;;5044461;28;20068;-84
2023/03/25 03:53:41;;;;;;;2.25;0.43;;;8.40;99.90;;;;;;5058410;28;19912;-83
2023/03/25 03:56:10;;;;;;;2.90;0.40;;;8.40;99.90;;;;;;5062168;28;20078;-84
2023/03/25 03:58:41;;;;;;;3.40;0.30;;;8.30;99.90;;;;;;5056014;28;20067;-83
2023/03/25 04:01:34;;;;;;;6.63;0.50;;;8.30;99.90;;;;;;5032513;28;20036;-83
2023/03/25 04:04:09;;;;;;;3.10;0.40;;;8.30;99.90;;;;;;5035043;28;20091;-82
2023/03/25 04:06:46;;;;;;;4.35;0.40;;;8.30;99.90;;;;;;5029711;28;20060;-83
2023/03/25 04:09:37;;;;;;;6.47;0.40;;;8.30;99.90;;;;;;5061684;28;20036;-83
2023/03/25 04:12:19;;;;;;;3.70;0.40;;;8.30;99.90;;;;;;5051838;28;20040;-83
2023/03/25 04:14:45;;;;;;;4.53;0.40;;;8.40;99.90;;;;;;5030316;28;22038;-84
2023/03/25 04:17:11;;;;;;;2.67;0.40;;;8.30;99.90;;;;;;5058118;28;20064;-83
2023/03/25 04:19:37;;;;;;;4.68;0.60;;;8.30;99.90;;;;;;5045367;28;20087;-83
2023/03/25 04:22:04;;;;;;;4.53;0.40;;;8.30;99.90;;;;;;5035534;28;20025;-84
2023/03/25 04:24:30;;;;;;;4.65;0.50;;;8.30;99.90;;;;;;5061089;28;20037;-84
2023/03/25 04:27:03;;;;;;;3.80;0.93;;;8.30;99.90;;;;;;5054477;28;20058;-84
2023/03/25 04:29:30;;;;;;;3.63;0.47;;;8.30;99.90;;;;;;5058607;28;20032;-83
2023/03/25 04:31:57;;;;;;;4.03;0.40;;;8.30;99.90;;;;;;5059803;28;20048;-84
2023/03/25 04:34:22;;;;;;;4.93;0.40;;;8.20;99.90;;;;;;5062349;28;20091;-83
2023/03/25 04:36:49;;;;;;;3.85;0.40;;;8.10;99.90;;;;;;5038821;28;20487;-84
2023/03/25 04:39:21;;;;;;;5.07;0.40;;;8.10;99.90;;;;;;5070990;28;20083;-84
2023/03/25 04:41:48;;;;;;;2.30;0.40;;;8.10;99.90;;;;;;5041371;28;20542;-84
2023/03/25 04:44:15;;;;;;;5.32;0.50;;;8.00;99.90;;;;;;5041575;28;20024;-84
2023/03/25 04:46:41;;;;;;;3.58;0.32;;;8.10;99.90;;;;;;5041517;28;20037;-85
2023/03/25 04:49:17;;;;;;;5.15;0.60;;;8.10;99.90;;;;;;5038496;28;20032;-84
2023/03/25 04:51:44;;;;;;;7.55;0.47;;;8.10;99.90;;;;;;5066027;28;20083;-84
2023/03/25 04:54:10;;;;;;;5.82;1.13;;;8.10;99.90;;;;;;5056416;28;20062;-84
2023/03/25 04:56:38;;;;;;;5.90;0.40;;;8.10;99.90;;;;;;5063882;28;20049;-84
2023/03/25 04:59:05;;;;;;;4.38;0.32;;;8.20;99.90;;;;;;5050409;28;20071;-84
2023/03/25 05:01:31;;;;;;;7.20;0.40;;;8.20;99.90;;;;;;5044958;28;20037;-84
2023/03/25 05:04:05;;;;;;;5.57;0.50;;;8.20;99.90;;;;;;5042365;28;20033;-84
2023/03/25 05:06:39;;;;;;;6.07;0.50;;;8.20;99.90;;;;;;5057325;28;20033;-84
2023/03/25 05:09:07;;;;;;;5.07;0.40;;;8.30;99.90;;;;;;5055012;28;20037;-86
2023/03/25 05:11:35;;;;;;;3.67;0.47;;;8.30;99.90;;;;;;5033792;28;20037;-83
2023/03/25 05:14:02;;;;;;;4.35;0.40;;;8.30;99.90;;;;;;5049738;28;20469;-85
2023/03/25 05:16:27;;;;;;;7.22;0.50;;;8.40;99.90;;;;;;5027715;28;20389;-84
2023/03/25 05:18:53;;;;;;;6.05;0.40;;;8.40;99.90;;;;;;5049975;28;20046;-85
2023/03/25 05:21:19;;;;;;;5.53;0.40;;;8.40;99.90;;;;;;5057189;28;20070;-86
2023/03/25 05:23:44;;;;;;;7.30;0.73;;;8.40;99.90;;;;;;5031349;28;20511;-85
2023/03/25 05:26:13;;;;;;;3.72;0.82;;;8.40;99.90;;;;;;5063402;28;20116;-85
2023/03/25 05:28:40;;;;;;;2.15;0.40;;;8.40;99.90;;;;;;5031032;28;20032;-85
2023/03/25 05:31:09;;;;;;;4.47;0.30;;;8.40;99.90;;;;;;5046392;28;20022;-85
2023/03/25 05:33:41;;;;;;;8.82;0.77;;;8.40;99.90;;;;;;5041969;28;20037;-85
2023/03/25 05:36:11;;;;;;;5.50;0.40;;;8.40;99.90;;;;;;5052126;28;20021;-85
2023/03/25 05:38:40;;;;;;;3.08;0.30;;;8.50;99.90;;;;;;5024632;28;20064;-87
2023/03/25 05:41:09;;;;;;;3.60;0.30;;;8.50;99.90;;;;;;5039112;28;20046;-86
2023/03/25 05:43:38;;;;;;;2.92;0.40;;;8.50;99.90;;;;;;5046737;28;20463;-85
2023/03/25 05:46:04;;;;;;;3.80;0.40;;;8.50;99.90;;;;;;5058445;28;20542;-84
2023/03/25 05:48:31;;;;;;;3.95;0.40;;;8.50;99.90;;;;;;5061543;28;20038;-87
2023/03/25 05:51:09;;;;;;;3.05;0.40;;;8.50;99.90;;;;;;5062157;28;20079;-85
2023/03/25 05:53:36;;;;;;;5.15;0.30;;;8.50;99.90;;;;;;5026790;28;20454;-85
2023/03/25 05:56:02;;;;;;;2.75;0.30;;;8.60;99.90;;;;;;5040761;28;20381;-85
2023/03/25 05:58:28;;;;;;;5.90;0.55;;;8.50;99.90;;;;;;5044586;28;20049;-86
2023/03/25 06:00:54;;;;;;;5.03;0.38;;;8.50;99.90;;;;;;5043223;28;20072;-85
2023/03/25 06:03:24;;;;;;;5.07;0.50;;;8.40;99.90;;;;;;5047195;28;20457;-86
2023/03/25 06:05:52;;;;;;;4.10;0.50;;;8.40;99.90;;;;;;5063220;28;20488;-84
2023/03/25 06:08:24;;;;;;;5.10;0.40;;;8.40;99.90;;;;;;5040589;28;20462;-86
2023/03/25 06:10:59;;;;;;;6.95;0.50;;;8.50;99.90;;;;;;5047477;28;20052;-85
2023/03/25 06:13:27;;;;;;;3.25;0.47;;;8.50;99.90;;;;;;5043424;28;20039;-87
2023/03/25 06:15:56;;;;;;;5.60;0.40;;;8.50;99.90;;;;;;5063522;28;20029;-85
2023/03/25 06:18:24;;;;;;;3.97;0.30;;;8.50;99.90;;;;;;5060262;28;20396;-87
2023/03/25 06:20:52;;;;;;;4.35;0.40;;;8.50;99.90;;;;;;5046672;28;20385;-86
2023/03/25 06:23:21;;;;;;;2.17;0.40;;;8.50;99.90;;;;;;5034802;28;20393;-85
2023/03/25 06:25:51;;;;;;;3.15;0.40;;;8.50;99.90;;;;;;5040976;28;20484;-85
2023/03/25 06:28:17;;;;;;;3.92;0.40;;;8.50;99.90;;;;;;5045467;28;20102;-85
2023/03/25 06:30:49;;;;;;;5.90;0.45;;;8.50;99.90;;;;;;5043719;28;20048;-85
2023/03/25 06:33:18;;;;;;;2.92;0.50;;;8.50;99.90;;;;;;5043884;28;20269;-84
2023/03/25 06:35:52;;;;;;;5.15;0.50;;;8.50;99.90;;;;;;5037017;28;20025;-85
2023/03/25 06:38:18;;;;;;;7.70;0.60;;;8.50;99.90;;;;;;5036043;28;20389;-83
2023/03/25 06:41:06;;;;;;;7.57;0.60;;;8.50;99.90;;;;;;5033061;28;20067;-85
2023/03/25 06:43:32;;;;;;;4.30;0.45;;;8.60;99.90;;;;;;5066053;28;20545;-85
2023/03/25 06:46:07;;;;;;;11.90;0.80;;;8.60;99.90;;;;;;5063065;28;20469;-85
2023/03/25 06:49:08;;;;;;;7.72;0.80;;;8.70;99.90;;;;;;5038690;28;20059;-85
2023/03/25 06:51:34;;;;;;;4.85;0.70;;;8.80;99.90;;;;;;5060038;28;20622;-84
2023/03/25 06:54:00;;;;;;;4.90;0.85;;;8.90;99.90;;;;;;5028482;28;20041;-85
2023/03/25 06:56:25;;;;;;;6.93;0.60;;;8.90;99.90;;;;;;5044176;28;20060;-84
2023/03/25 06:58:51;;;;;;;6.50;0.57;;;8.90;99.90;;;;;;5056028;28;20025;-84
2023/03/25 07:01:17;;;;;;;7.43;0.90;;;8.90;99.90;;;;;;5040543;28;20021;-84
2023/03/25 07:03:43;;;;;;;6.22;0.90;;;8.90;99.90;;;;;;5059635;28;20029;-85
2023/03/25 07:06:15;;;;;;;3.85;0.90;;;8.90;99.90;;;;;;5047177;28;20496;-85
2023/03/25 07:08:41;;;;;;;5.25;0.77;;;8.90;99.90;;;;;;5034450;28;20062;-84
2023/03/25 07:11:07;;;;;;;7.78;0.90;;;8.90;99.90;;;;;;5055762;28;20033;-84
2023/03/25 07:13:33;;;;;;;8.02;0.80;;;8.90;99.90;;;;;;5056641;28;20047;-84
2023/03/25 07:16:00;;;;;;;8.35;1.20;;;8.90;99.90;;;;;;5062568;28;20029;-84
2023/03/25 07:18:26;;;;;;;6.47;0.63;;;9.00;99.90;;;;;;5041419;28;20053;-84
2023/03/25 07:20:52;;;;;;;8.57;0.93;;;9.00;99.90;;;;;;5029281;28;20045;-84
2023/03/25 07:23:18;;;;;;;5.15;1.02;;;9.00;99.90;;;;;;5037060;28;20040;-84
2023/03/25 07:25:44;;;;;;;5.68;0.98;;;9.10;99.90;;;;;;5030286;28;20100;-84
2023/03/25 07:28:09;;;;;;;4.35;0.60;;;9.20;99.90;;;;;;5062251;28;20080;-84
2023/03/25 07:30:41;;;;;;;7.13;0.82;;;9.30;99.90;;;;;;5046069;28;20021;-84
2023/03/25 07:33:07;;;;;;;6.70;0.75;;;9.50;99.90;;;;;;5063947;28;20042;-84
2023/03/25 07:35:33;;;;;;;6.45;0.63;;;9.50;99.90;;;;;;5038656;28;20029;-83
2023/03/25 07:37:59;;;;;;;3.97;0.50;;;9.50;99.90;;;;;;5059218;28;20057;-84
2023/03/25 07:40:28;;;;;;;7.07;0.60;;;9.50;99.90;;;;;;5038946;28;20032;-83
2023/03/25 07:42:53;;;;;;;5.68;0.57;;;9.50;99.90;;;;;;5041719;28;20095;-85
2023/03/25 07:45:21;;;;;;;5.93;0.60;;;9.40;99.90;;;;;;5022446;28;20103;-84
2023/03/25 07:47:49;;;;;;;6.57;0.80;;;9.30;99.90;;;;;;5039092;28;20109;-84
2023/03/25 07:50:20;;;;;;;7.38;0.70;;;9.20;99.90;;;;;;5044192;28;20021;-84
2023/03/25 07:52:46;;;;;;;5.88;1.15;;;9.20;99.90;;;;;;5059938;28;20045;-86
2023/03/25 07:55:13;;;;;;;4.53;0.55;;;9.30;99.90;;;;;;5041804;28;20087;-85
2023/03/25 07:57:42;;;;;;;3.67;0.60;;;9.30;99.90;;;;;;5042643;28;20109;-85
2023/03/25 08:00:10;;;;;;;6.75;0.85;;;9.30;99.90;;;;;;5032992;28;20565;-84
2023/03/25 08:02:39;;;;;;;7.50;0.88;;;9.50;99.90;;;;;;5050806;28;20028;-85
2023/03/25 08:05:08;;;;;;;8.13;0.70;;;9.40;99.90;;;;;;5041716;28;20037;-85
2023/03/25 08:07:34;;;;;;;7.70;1.35;;;9.40;99.90;;;;;;5041588;28;20033;-85
2023/03/25 08:10:00;;;;;;;4.18;0.93;;;9.30;99.90;;;;;;5043634;28;20036;-85
2023/03/25 08:12:26;;;;;;;7.53;1.13;;;9.40;99.90;;;;;;5030067;28;20109;-86
2023/03/25 08:14:51;;;;;;;10.48;0.70;;;9.20;99.90;;;;;;5056547;28;20420;-84
2023/03/25 08:17:17;;;;;;;6.45;0.88;;;9.10;99.90;;;;;;5033003;28;20321;-83
2023/03/25 08:19:43;;;;;;;10.55;1.10;;;9.00;99.90;;;;;;5064478;28;20411;-83
2023/03/25 08:22:08;;;;;;;8.05;0.90;;;8.70;99.90;;;;;;5056262;28;20349;-83
2023/03/25 08:24:34;;;;;;;9.43;0.70;;;8.70;99.90;;;;;;5040114;28;20024;-83
2023/03/25 08:27:00;;;;;;;9.30;0.90;;;8.70;99.90;;;;;;5032533;28;20401;-83
2023/03/25 08:29:26;;;;;;;3.05;0.50;;;8.70;99.90;;;;;;5061087;28;20036;-82
2023/03/25 08:31:53;;;;;;;5.00;0.90;;;8.80;99.90;;;;;;5063285;28;20048;-84
2023/03/25 08:34:20;;;;;;;4.88;0.60;;;8.80;99.90;;;;;;5060184;28;20036;-84
2023/03/25 08:36:46;;;;;;;6.93;0.70;;;8.90;99.90;;;;;;5058040;28;20041;-84
2023/03/25 08:39:16;;;;;;;9.48;0.82;;;8.80;99.90;;;;;;5039087;28;20035;-83
2023/03/25 08:41:43;;;;;;;6.82;0.98;;;8.70;99.90;;;;;;5059429;28;20032;-84
2023/03/25 08:44:09;;;;;;;8.55;0.85;;;8.80;99.90;;;;;;5033658;28;20021;-83
2023/03/25 08:46:35;;;;;;;11.57;0.95;;;8.90;99.90;;;;;;5044554;28;20477;-82
2023/03/25 08:49:02;;;;;;;7.60;1.20;;;9.00;99.90;;;;;;5054618;28;20032;-83
2023/03/25 08:51:28;;;;;;;4.15;0.60;;;9.00;99.90;;;;;;5045138;28;20045;-82
2023/03/25 08:53:54;;;;;;;9.07;0.77;;;9.10;99.90;;;;;;5042484;28;20028;-83
2023/03/25 08:56:20;;;;;;;9.55;0.70;;;9.10;99.90;;;;;;5044744;28;20035;-82
2023/03/25 08:58:45;;;;;;;8.63;0.98;;;9.10;99.90;;;;;;5024400;28;20443;-81
2023/03/25 09:01:11;;;;;;;6.95;0.80;;;9.10;99.90;;;;;;5058015;28;20040;-81
2023/03/25 09:03:37;;;;;;;14.45;1.98;;;9.00;99.90;;;;;;5055463;28;20025;-83
2023/03/25 09:06:07;;;;;;;13.25;1.05;;;8.80;99.90;;;;;;5038599;28;20029;-82
2023/03/25 09:08:35;;;;;;;6.82;1.35;;;8.60;99.90;;;;;;5060900;28;20029;-82
2023/03/25 09:11:01;;;;;;;8.13;1.20;;;8.70;99.90;;;;;;5032649;28;20037;-87
2023/03/25 09:13:27;;;;;;;9.48;1.15;;;8.70;99.90;;;;;;5060127;28;20084;-84
2023/03/25 09:15:53;;;;;;;12.10;1.10;;;8.80;99.90;;;;;;5068782;28;20474;-85
2023/03/25 09:18:18;;;;;;;11.48;1.35;;;8.90;99.90;;;;;;5054745;28;20024;-83
2023/03/25 09:20:47;;;;;;;13.98;0.82;;;9.10;99.90;;;;;;5056021;28;20090;-83
2023/03/25 09:23:16;;;;;;;17.45;0.90;;;9.20;99.90;;;;;;5055158;28;20322;-84
2023/03/25 09:25:43;;;;;;;11.35;0.90;;;9.40;99.90;;;;;;5032631;28;20115;-83
2023/03/25 09:28:08;;;;;;;9.00;1.10;;;9.50;99.90;;;;;;5056994;28;20136;-83
2023/03/25 09:30:34;;;;;;;10.00;0.80;;;9.60;99.90;;;;;;5058113;28;20113;-85
2023/03/25 09:33:00;;;;;;;13.35;0.90;;;9.70;99.90;;;;;;5056937;28;20058;-88
2023/03/25 09:35:26;;;;;;;11.68;1.25;;;9.70;99.90;;;;;;5038312;28;20040;-88
2023/03/25 09:37:52;;;;;;;11.68;0.75;;;9.70;99.90;;;;;;5054114;28;20339;-86
2023/03/25 09:40:19;;;;;;;9.77;1.10;;;9.70;99.90;;;;;;5036987;28;20036;-86
2023/03/25 09:42:57;;;;;;;10.73;1.33;;;9.80;99.90;;;;;;5004952;28;20546;-83
2023/03/25 09:45:39;;;;;;;9.15;0.73;;;10.00;99.90;;;;;;5026861;28;20033;-84
2023/03/25 09:48:42;;;;;;;9.73;1.02;;;10.20;99.90;;;;;;5020651;28;20040;-86
2023/03/25 09:51:25;;;;;;;10.45;1.55;;;10.10;99.90;;;;;;5034738;28;20041;-87
2023/03/25 09:54:11;;;;;;;8.65;0.77;;;10.50;99.90;;;;;;5018016;28;20563;-86
2023/03/25 09:56:40;;;;;;;10.18;0.80;;;10.80;99.90;;;;;;5035430;28;20373;-85
2023/03/25 09:59:41;;;;;;;9.05;0.80;;;10.60;99.90;;;;;;5018897;28;20096;-87
2023/03/25 10:02:32;;;;;;;15.68;1.48;;;10.50;99.90;;;;;;5035994;28;20064;-83
2023/03/25 10:05:22;;;;;;;9.50;1.92;;;10.10;99.90;;;;;;5042739;28;20132;-85
2023/03/25 10:08:12;;;;;;;;;;;9.90;99.90;;;;;;5042072;28;20051;-84
2023/03/25 10:11:17;;;;;;;9.70;1.17;;;10.10;99.90;;;;;;5037544;28;19959;-83
2023/03/25 10:13:58;;;;;;;9.88;1.00;;;9.90;99.90;;;;;;5044846;28;20728;-85
2023/03/25 10:16:33;;;;;;;10.93;1.08;;;9.80;99.90;;;;;;5020332;28;20368;-83
2023/03/25 10:19:20;;;;;;;11.77;0.90;;;9.50;99.90;;;;;;5035437;28;20041;-83
2023/03/25 10:21:51;;;;;;;14.82;1.98;;;9.50;99.90;;;;;;5026202;28;20080;-83
2023/03/25 10:24:29;;;;;;;10.98;1.42;;;9.40;99.90;;;;;;5035530;28;20033;-85
2023/03/25 10:27:05;;;;;;;9.55;1.10;;;9.50;99.90;;;;;;5019192;28;20504;-83
2023/03/25 10:29:44;;;;;;;10.93;1.35;;;9.80;99.90;;;;;;5050907;28;20599;-84
2023/03/25 10:32:40;;;;;;;6.20;0.75;;;9.80;99.90;;;;;;5019636;28;20052;-81
2023/03/25 10:35:17;;;;;;;7.68;0.90;;;10.20;99.90;;;;;;5018465;28;20029;-82
2023/03/25 10:37:43;;;;;;;8.63;1.23;;;10.40;99.90;;;;;;5051444;28;20041;-83
2023/03/25 10:40:24;;;;;;;12.18;0.80;;;10.40;99.90;;;;;;5035291;28;20032;-83
2023/03/25 10:43:12;;;;;;;15.27;1.10;;;10.50;99.90;;;;;;5016785;28;20488;-84
2023/03/25 10:45:40;;;;;;;14.45;1.35;;;10.90;99.90;;;;;;5025549;28;20033;-86
2023/03/25 10:48:26;;;;;;;16.23;1.55;;;10.80;99.90;;;;;;5018376;28;20047;-85
2023/03/25 10:51:01;;;;;;;13.23;0.88;;;10.90;99.90;;;;;;5018573;28;20198;-84
2023/03/25 10:53:28;;;;;;;11.57;1.50;;;11.10;99.90;;;;;;5018256;28;20049;-85
2023/03/25 10:55:58;;;;;;;8.82;1.20;;;11.70;99.90;;;;;;5033831;28;20063;-85
2023/03/25 10:58:25;;;;;;;10.45;1.20;;;11.50;99.90;;;;;;5035329;28;20075;-87
2023/03/25 11:00:51;;;;;;;10.85;1.13;;;10.90;99.90;;;;;;5024471;28;20047;-86
2023/03/25 11:03:23;;;;;;;6.45;0.50;;;10.20;99.90;;;;;;5018836;28;20052;-84
2023/03/25 11:05:51;;;;;;;9.95;0.50;;;9.90;99.90;;;;;;5018381;28;20087;-83
2023/03/25 11:08:20;;;;;;;12.73;0.98;;;9.70;99.90;;;;;;5018141;28;20060;-84
2023/03/25 11:10:57;;;;;;;12.77;1.00;;;9.90;99.90;;;;;;5018143;28;20037;-83
2023/03/25 11:13:25;;;;;;;11.63;1.48;;;10.30;99.90;;;;;;5027476;28;20488;-83
2023/03/25 11:15:53;;;;;;;12.70;1.38;;;10.70;99.90;;;;;;5017011;28;20629;-84
2023/03/25 11:18:27;;;;;;;18.55;1.38;;;10.90;99.90;;;;;;5050704;28;20037;-85
2023/03/25 11:21:03;;;;;;;12.07;1.17;;;11.30;99.90;;;;;;5017999;28;20124;-82
2023/03/25 11:23:33;;;;;;;10.45;1.23;;;11.60;99.90;;;;;;5032717;28;20068;-84
2023/03/25 11:26:25;;;;;;;14.07;0.70;;;12.00;99.90;;;;;;5036821;28;20159;-88
2023/03/25 11:29:00;;;;;;;17.00;1.05;;;11.60;99.90;;;;;;5018389;28;20073;-86
2023/03/25 11:31:29;;;;;;;17.85;1.75;;;10.90;99.90;;;;;;5018132;28;20041;-85
2023/03/25 11:34:11;;;;;;;15.55;1.60;;;11.10;99.90;;;;;;5001707;28;20108;-86
2023/03/25 11:37:03;;;;;;;17.92;1.00;;;11.10;99.90;;;;;;5002099;28;20036;-86
2023/03/25 11:39:38;;;;;;;14.57;1.10;;;10.70;99.90;;;;;;5013959;28;20172;-85
2023/03/25 11:42:41;;;;;;;15.45;0.88;;;10.40;99.90;;;;;;5026196;28;20367;-84
2023/03/25 11:45:22;;;;;;;9.88;0.70;;;10.40;99.90;;;;;;5020339;28;20049;-82
2023/03/25 11:47:49;;;;;;;13.32;0.80;;;10.40;99.90;;;;;;5007825;28;20037;-83
2023/03/25 11:50:25;;;;;;;15.55;1.38;;;10.90;99.90;;;;;;5016628;28;20033;-84
2023/03/25 11:52:55;;;;;;;12.05;0.88;;;11.10;99.90;;;;;;4999663;28;20037;-84
2023/03/25 11:55:36;;;;;;;9.25;0.93;;;10.80;99.90;;;;;;5015818;28;20196;-82
2023/03/25 11:58:03;;;;;;;7.70;0.75;;;11.00;99.90;;;;;;5000522;28;20048;-86
2023/03/25 12:00:40;;;;;;;7.20;0.52;;;11.00;99.90;;;;;;5017989;28;20221;-82
2023/03/25 12:03:12;;;;;;;12.23;1.33;;;11.20;99.90;;;;;;5018153;28;20095;-83
2023/03/25 12:05:40;;;;;;;14.48;1.00;;;11.00;99.90;;;;;;5025226;28;20068;-84
2023/03/25 12:08:16;;;;;;;11.85;0.95;;;10.90;99.90;;;;;;5033656;28;20474;-85
2023/03/25 12:10:48;;;;;;;12.48;0.98;;;10.90;99.90;;;;;;5002159;28;21199;-84
2023/03/25 12:13:29;;;;;;;10.52;0.88;;;11.40;99.90;;;;;;5017087;28;20041;-83
2023/03/25 12:16:19;;;;;;;13.77;0.80;;;11.70;99.90;;;;;;5010080;28;20454;-87
2023/03/25 12:19:14;;;;;;;9.35;0.40;;;11.70;99.90;;;;;;5018361;28;20531;-83
2023/03/25 12:22:01;;;;;;;9.45;0.88;;;12.00;99.90;;;;;;5022798;28;20029;-86
2023/03/25 12:24:42;;;;;;;10.30;0.82;;;12.40;99.90;;;;;;5013440;28;20072;-87
2023/03/25 12:27:10;;;;;;;4.68;0.38;;;12.30;99.90;;;;;;5034073;28;20045;-85
2023/03/25 12:29:43;;;;;;;8.05;1.02;;;12.50;99.90;;;;;;5049340;28;20033;-86
2023/03/25 12:32:40;;;;;;;5.70;0.38;;;12.00;99.90;;;;;;5048118;28;20041;-87
2023/03/25 12:35:29;;;;;;;11.25;0.60;;;12.90;99.90;;;;;;5030182;28;20037;-84
2023/03/25 12:38:15;;;;;;;5.43;0.30;;;12.40;99.90;;;;;;5038827;28;20033;-85
2023/03/25 12:41:22;;;;;;;11.13;0.57;;;12.40;99.90;;;;;;5051407;28;20057;-85
2023/03/25 12:43:50;;;;;;;8.35;0.60;;;12.30;99.90;;;;;;5038822;28;20095;-87
2023/03/25 12:46:38;;;;;;;6.10;0.50;;;12.40;99.90;;;;;;5013808;28;20040;-88
2023/03/25 12:49:22;;;;;;;4.88;0.47;;;12.50;99.90;;;;;;5004241;28;20029;-87
2023/03/25 12:52:12;;;;;;;5.90;0.63;;;12.60;99.90;;;;;;5011766;28;20045;-87
2023/03/25 12:55:06;;;;;;;6.05;0.40;;;12.50;99.90;;;;;;5010941;28;20112;-90
2023/03/25 12:57:50;;;;;;;7.20;0.68;;;12.20;99.90;;;;;;4993494;28;20045;-90
2023/03/25 13:00:27;;;;;;;7.88;0.40;;;11.90;99.90;;;;;;5003753;28;20021;-88
2023/03/25 13:02:57;;;;;;;11.07;0.50;;;11.80;99.90;;;;;;4997053;28;20055;-87
2023/03/25 13:05:38;;;;;;;9.32;0.70;;;11.80;99.90;;;;;;4997103;28;20037;-87
2023/03/25 13:08:13;;;;;;;9.07;0.50;;;11.80;99.90;;;;;;5033594;28;20052;-87
2023/03/25 13:10:42;;;;;;;9.52;0.70;;;11.90;99.90;;;;;;5023079;28;20045;-90
2023/03/25 13:13:23;;;;;;;6.22;0.60;;;11.80;99.90;;;;;;5028590;28;20049;-87
2023/03/25 13:16:08;;;;;;;5.97;0.70;;;11.90;99.90;;;;;;4994490;28;20433;-87
2023/03/25 13:18:43;;;;;;;9.77;0.70;;;11.70;99.90;;;;;;5025774;28;20079;-89